Plush, OR (97637)

9:36 AM PDT on August 20, 2014 (GMT -0700)
Valley Falls, OR | Change Station
CLOSE
Current Station
Personal Weather Station
Location: Lakeview, OR
Elevation: 4390 ft
Nearby Weather Stations

Elev 4390 ft 42.46 °N, 120.29 °W | Updated 1 minute ago

Clear
Clear
69.9 °F
Feels Like 69.9 °F
N
3.0
Wind Variable Wind from NE
Gusts 5.0 mph

Today
High -- | Low -- °F
--% Chance of Precip.
Yesterday
High -- | Low -- °F
Precip. -- in
6:12 AM 7:53 PM
Waning Crescent, 20% visible
Pressure 30.03 in
Visibility 10.0 miles
Clouds Clear
Dew Point 51 °F
Humidity 51%
Rainfall 0.00 in
Snow Depth Not available.
UV 4 out of 12
Pollen 5.90 out of 12
Air Quality Not available.
Flu Activity Not available.
METAR KLKV 201615Z AUTO 17006KT 10SM CLR 18/09 A3003 RMK AO1

More Conditions Fewer Conditions

Pressure 30.03 in
Visibility 10.0 miles
Clouds Clear
Dew Point 51 °F
Humidity 51%
Rainfall 0.00 in
Snow Depth Not available.
UV 4 out of 12
Pollen 5.90 out of 12
Air Quality Not available.
Flu Activity Not available.
METAR KLKV 201615Z AUTO 17006KT 10SM CLR 18/09 A3003 RMK AO1

More Conditions Fewer Conditions

10-Day Weather Forecast

Almanac

Astronomy

Aug. 20, 2014 Rise Set
Actual Time 6:12 AM PDT 7:53 PM PDT
Civil Twilight 5:42 AM PDT 8:23 PM PDT
Nautical Twilight 5:05 AM PDT 8:59 PM PDT
Astronomical Twilight 4:26 AM PDT 9:38 PM PDT
Moon 1:53 AM PDT 4:44 PM PDT
Length of Visible Light 14h 41m
Length of Day
13h 41m
Tomorrow will be 2m 39s shorter.
Waning Crescent, 20% of the Moon is Illuminated
Today
Waning Crescent
Aug 25
New
Sep 2
First Quarter
Sep 8
Full
Sep 15
Last Quarter

Today's Extremes

State Highs State Lows

Community

WunderPhotos

Upload Photos

1,745,689 photos uploaded!

Nearby

Snow Depth

Station Depth Elevation
Snow Mountain 0 in 6220 ft
Strawberry 0 in 5760 ft
Sevenmile Marsh 0 in 6200 ft
Cold Springs Camp 0 in 6100 ft
Annie Springs 0 in 6020 ft

Earthquake Activity

City Distance Mag. Time & Date
No recent earthquake activity has been reported nearby.
Minimum magnitude displayed is 2.5.

Coastal Water Temperatures

Place Temperature
No Stations Reporting

Nearby Weather Stations